Time;durP1;ratioP1;P1;durP2;ratioP2;P2;SDS_P1;SDS_P2;PMS_P1;PMS_P2;Temp;Humidity;BMP_temperature;BMP_pressure;BME280_temperature;BME280_humidity;BME280_pressure;Samples;Min_cycle;Max_cycle;Signal;HPM_P1;HPM_P2
2023/04/30 00:00:15;;;;;;;3.27;2.93;;;;;;;;;;5041326;28;20205;-32
2023/04/30 00:02:42;;;;;;;3.30;2.90;;;;;;;;;;5043380;28;20206;-33
2023/04/30 00:05:10;;;;;;;3.00;2.70;;;;;;;;;;5047272;28;20272;-32
2023/04/30 00:07:40;;;;;;;3.47;2.60;;;;;;;;;;5036788;28;20239;-31
2023/04/30 00:10:08;;;;;;;3.20;2.90;;;;;;;;;;5040433;28;20253;-33
2023/04/30 00:12:37;;;;;;;3.77;2.97;;;;;;;;;;5040469;28;20221;-32
2023/04/30 00:15:05;;;;;;;3.17;2.87;;;;;;;;;;5039067;28;20228;-33
2023/04/30 00:17:33;;;;;;;2.80;2.57;;;;;;;;;;5039114;28;20211;-33
2023/04/30 00:20:00;;;;;;;2.90;2.43;;;;;;;;;;5040175;28;20262;-32
2023/04/30 00:22:27;;;;;;;3.47;2.90;;;;;;;;;;5050914;28;20201;-33
2023/04/30 00:24:54;;;;;;;4.27;3.20;;;;;;;;;;5055044;28;20253;-31
2023/04/30 00:27:21;;;;;;;3.70;2.53;;;;;;;;;;5049341;28;20523;-29
2023/04/30 00:29:50;;;;;;;3.60;2.60;;;;;;;;;;5047221;28;20209;-30
2023/04/30 00:32:17;;;;;;;2.53;2.33;;;;;;;;;;5047990;28;20214;-34
2023/04/30 00:34:44;;;;;;;5.37;3.47;;;;;;;;;;5048573;28;20579;-32
2023/04/30 00:37:11;;;;;;;4.43;3.63;;;;;;;;;;5045486;28;20207;-33
2023/04/30 00:39:39;;;;;;;3.80;2.93;;;;;;;;;;5052407;28;20343;-33
2023/04/30 00:42:06;;;;;;;3.00;2.57;;;;;;;;;;5039803;28;20290;-33
2023/04/30 00:44:33;;;;;;;3.80;2.80;;;;;;;;;;5036165;28;20224;-31
2023/04/30 00:47:01;;;;;;;3.47;2.63;;;;;;;;;;5052192;28;20212;-33
2023/04/30 00:49:29;;;;;;;4.13;3.00;;;;;;;;;;5049860;28;20203;-34
2023/04/30 00:51:56;;;;;;;3.00;2.70;;;;;;;;;;5044760;28;20202;-30
2023/04/30 00:54:24;;;;;;;3.20;2.90;;;;;;;;;;5054167;28;20230;-32
2023/04/30 00:56:51;;;;;;;3.53;3.00;;;;;;;;;;5039961;28;20200;-32
2023/04/30 00:59:18;;;;;;;3.60;2.70;;;;;;;;;;5036961;28;20308;-32
2023/04/30 01:01:46;;;;;;;3.70;2.87;;;;;;;;;;5040457;28;20202;-31
2023/04/30 01:04:15;;;;;;;3.80;3.20;;;;;;;;;;5043548;28;20225;-32
2023/04/30 01:06:42;;;;;;;3.47;3.13;;;;;;;;;;5050392;28;20600;-34
2023/04/30 01:09:10;;;;;;;3.33;3.03;;;;;;;;;;5051783;28;20232;-31
2023/04/30 01:11:42;;;;;;;4.37;3.37;;;;;;;;;;5040215;28;20283;-34
2023/04/30 01:14:11;;;;;;;3.57;3.10;;;;;;;;;;5040954;28;20235;-33
2023/04/30 01:16:42;;;;;;;3.37;3.07;;;;;;;;;;5041283;28;20282;-33
2023/04/30 01:19:11;;;;;;;5.10;3.17;;;;;;;;;;5036481;28;20198;-33
2023/04/30 01:21:41;;;;;;;4.67;3.30;;;;;;;;;;5044489;28;20214;-33
2023/04/30 01:24:19;;;;;;;3.47;3.17;;;;;;;;;;5053172;28;20225;-34
2023/04/30 01:26:54;;;;;;;3.73;3.10;;;;;;;;;;5041385;28;20222;-30
2023/04/30 01:29:22;;;;;;;3.40;3.10;;;;;;;;;;5047306;28;20204;-34
2023/04/30 01:31:49;;;;;;;4.00;3.00;;;;;;;;;;5044565;28;20265;-36
2023/04/30 01:34:17;;;;;;;3.47;2.80;;;;;;;;;;5047063;28;20238;-32
2023/04/30 01:36:51;;;;;;;3.83;3.17;;;;;;;;;;5050718;28;20209;-33
2023/04/30 01:39:34;;;;;;;5.30;3.20;;;;;;;;;;5034896;28;20202;-32
2023/04/30 01:42:06;;;;;;;3.73;3.03;;;;;;;;;;5040308;28;20203;-30
2023/04/30 01:44:41;;;;;;;4.00;3.60;;;;;;;;;;5049087;28;20214;-32
2023/04/30 01:47:13;;;;;;;4.67;3.00;;;;;;;;;;5033910;28;20210;-33
2023/04/30 01:49:44;;;;;;;5.20;2.90;;;;;;;;;;5041638;28;20208;-32
2023/04/30 01:52:14;;;;;;;3.47;3.10;;;;;;;;;;5038551;28;20204;-32
2023/04/30 01:54:46;;;;;;;4.63;3.10;;;;;;;;;;5033580;28;20253;-33
2023/04/30 01:57:16;;;;;;;3.27;2.70;;;;;;;;;;5039577;28;20210;-31
2023/04/30 01:59:46;;;;;;;3.50;3.20;;;;;;;;;;5031679;28;20207;-30
2023/04/30 02:02:13;;;;;;;7.73;3.30;;;;;;;;;;5030678;28;20321;-33
2023/04/30 02:04:40;;;;;;;3.63;3.23;;;;;;;;;;5042824;28;20224;-35
2023/04/30 02:07:07;;;;;;;4.67;3.37;;;;;;;;;;5042097;28;20493;-34
2023/04/30 02:09:34;;;;;;;3.17;2.87;;;;;;;;;;5042465;28;20199;-32
2023/04/30 02:12:03;;;;;;;3.40;3.10;;;;;;;;;;5047068;28;20208;-31
2023/04/30 02:14:31;;;;;;;4.30;3.90;;;;;;;;;;5047938;28;20285;-34
2023/04/30 02:16:59;;;;;;;3.17;2.83;;;;;;;;;;5048787;28;20202;-34
2023/04/30 02:19:27;;;;;;;3.40;2.87;;;;;;;;;;5039210;28;20200;-34
2023/04/30 02:21:54;;;;;;;3.70;3.20;;;;;;;;;;5047534;28;20227;-34
2023/04/30 02:24:21;;;;;;;3.90;3.50;;;;;;;;;;5031710;28;20314;-33
2023/04/30 02:26:48;;;;;;;3.60;3.30;;;;;;;;;;5039935;28;20210;-29
2023/04/30 02:29:16;;;;;;;4.13;3.77;;;;;;;;;;5041436;28;20654;-33
2023/04/30 02:31:43;;;;;;;3.40;3.07;;;;;;;;;;5051108;28;20208;-31
2023/04/30 02:34:11;;;;;;;5.17;3.27;;;;;;;;;;5033102;28;20228;-34
2023/04/30 02:36:38;;;;;;;3.97;3.57;;;;;;;;;;5039525;28;20204;-30
2023/04/30 02:39:06;;;;;;;3.90;3.47;;;;;;;;;;5039549;28;20212;-30
2023/04/30 02:41:33;;;;;;;6.10;4.73;;;;;;;;;;5033120;28;20206;-33
2023/04/30 02:44:00;;;;;;;7.73;4.73;;;;;;;;;;5040832;28;20225;-32
2023/04/30 02:46:27;;;;;;;4.37;3.97;;;;;;;;;;5042883;28;20206;-34
2023/04/30 02:48:54;;;;;;;7.37;4.57;;;;;;;;;;5042216;28;20651;-33
2023/04/30 02:51:23;;;;;;;6.93;4.27;;;;;;;;;;5050222;28;20230;-35
2023/04/30 02:53:50;;;;;;;5.70;4.40;;;;;;;;;;5031452;28;20245;-31
2023/04/30 02:56:17;;;;;;;5.60;4.10;;;;;;;;;;5032775;28;20233;-32
2023/04/30 02:58:45;;;;;;;3.77;3.27;;;;;;;;;;5045218;28;20582;-32
2023/04/30 03:01:12;;;;;;;4.10;3.70;;;;;;;;;;5030498;28;20203;-35
2023/04/30 03:03:39;;;;;;;4.90;4.10;;;;;;;;;;5031333;28;20228;-33
2023/04/30 03:06:07;;;;;;;4.90;3.70;;;;;;;;;;5040018;28;20213;-35
2023/04/30 03:08:35;;;;;;;6.17;4.20;;;;;;;;;;5042306;28;20198;-34
2023/04/30 03:11:02;;;;;;;4.10;3.53;;;;;;;;;;5033466;28;20206;-34
2023/04/30 03:13:29;;;;;;;5.90;3.70;;;;;;;;;;5042105;28;20234;-32
2023/04/30 03:15:58;;;;;;;6.00;3.70;;;;;;;;;;5050866;28;20602;-32
2023/04/30 03:18:26;;;;;;;5.93;4.47;;;;;;;;;;5040958;28;20213;-34
2023/04/30 03:20:53;;;;;;;4.60;4.20;;;;;;;;;;5043595;28;20203;-32
2023/04/30 03:23:20;;;;;;;7.03;4.57;;;;;;;;;;5030482;28;20233;-33
2023/04/30 03:25:48;;;;;;;6.37;4.30;;;;;;;;;;5030800;28;20207;-34
2023/04/30 03:28:16;;;;;;;4.43;3.90;;;;;;;;;;5044562;28;20202;-31
2023/04/30 03:30:43;;;;;;;5.03;4.37;;;;;;;;;;5041605;28;20199;-33
2023/04/30 03:33:10;;;;;;;8.40;4.33;;;;;;;;;;5035667;28;20605;-35
2023/04/30 03:35:37;;;;;;;4.60;4.07;;;;;;;;;;5033670;28;20229;-32
2023/04/30 03:38:04;;;;;;;6.50;5.50;;;;;;;;;;5050397;28;20298;-34
2023/04/30 03:40:31;;;;;;;7.07;5.30;;;;;;;;;;5045262;28;20203;-34
2023/04/30 03:43:00;;;;;;;5.57;4.87;;;;;;;;;;5039491;28;20214;-30
2023/04/30 03:45:29;;;;;;;5.20;4.17;;;;;;;;;;5037984;28;20204;-31
2023/04/30 03:47:56;;;;;;;5.93;4.80;;;;;;;;;;5040818;28;20210;-32
2023/04/30 03:50:23;;;;;;;5.87;4.20;;;;;;;;;;5038075;28;20206;-33
2023/04/30 03:52:50;;;;;;;4.70;4.20;;;;;;;;;;5038554;28;20230;-34
2023/04/30 03:55:18;;;;;;;7.10;4.67;;;;;;;;;;5031127;28;20584;-32
2023/04/30 03:57:45;;;;;;;5.27;4.17;;;;;;;;;;5034740;28;20215;-33
2023/04/30 04:00:14;;;;;;;5.60;4.50;;;;;;;;;;5043585;28;20203;-33
2023/04/30 04:02:41;;;;;;;7.20;5.40;;;;;;;;;;5029556;28;20562;-32
2023/04/30 04:05:09;;;;;;;5.27;4.50;;;;;;;;;;5030045;28;20223;-32
2023/04/30 04:07:36;;;;;;;4.70;4.20;;;;;;;;;;5033526;28;20625;-32
2023/04/30 04:10:03;;;;;;;5.37;4.20;;;;;;;;;;5036661;28;20203;-30
2023/04/30 04:12:31;;;;;;;5.93;4.53;;;;;;;;;;5036455;28;20326;-34
2023/04/30 04:14:58;;;;;;;5.87;4.73;;;;;;;;;;5033666;28;20433;-32
2023/04/30 04:17:26;;;;;;;5.93;5.10;;;;;;;;;;5047197;28;20319;-30
2023/04/30 04:19:53;;;;;;;4.83;4.30;;;;;;;;;;5035017;28;20204;-31
2023/04/30 04:22:20;;;;;;;6.73;4.93;;;;;;;;;;5031013;28;20285;-31
2023/04/30 04:27:30;;;;;;;4.80;4.30;;;;;;;;;;5050906;28;20246;-39
2023/04/30 04:30:01;;;;;;;6.03;4.87;;;;;;;;;;5056383;28;20302;-39
2023/04/30 04:32:45;;;;;;;5.13;4.50;;;;;;;;;;5053272;28;20224;-35
2023/04/30 04:35:23;;;;;;;5.57;4.73;;;;;;;;;;5034757;28;20230;-35
2023/04/30 04:37:58;;;;;;;6.63;4.87;;;;;;;;;;5035854;28;20213;-38
2023/04/30 04:40:34;;;;;;;6.37;4.70;;;;;;;;;;5035744;28;20295;-35
2023/04/30 04:43:08;;;;;;;6.70;5.07;;;;;;;;;;5034349;28;20202;-39
2023/04/30 04:45:48;;;;;;;6.43;4.73;;;;;;;;;;5036037;28;20198;-34
2023/04/30 04:48:20;;;;;;;5.70;4.77;;;;;;;;;;5034083;28;20222;-35
2023/04/30 04:50:51;;;;;;;5.93;5.00;;;;;;;;;;5035583;28;20317;-33
2023/04/30 04:53:27;;;;;;;6.93;5.10;;;;;;;;;;5036065;28;20238;-34
2023/04/30 04:56:01;;;;;;;6.83;5.37;;;;;;;;;;5035953;28;20222;-37
2023/04/30 05:06:22;;;;;;;7.20;5.97;;;;;;;;;;5074655;28;20221;-37
2023/04/30 05:08:56;;;;;;;6.73;5.60;;;;;;;;;;5055802;28;20222;-34
2023/04/30 05:14:01;;;;;;;6.97;5.67;;;;;;;;;;5065600;28;20282;-39
2023/04/30 05:19:17;;;;;;;7.67;5.33;;;;;;;;;;5041274;28;20223;-39
2023/04/30 05:21:50;;;;;;;5.77;4.70;;;;;;;;;;5037064;28;20229;-37
2023/04/30 05:24:23;;;;;;;7.93;5.53;;;;;;;;;;5038029;28;20222;-34
2023/04/30 05:26:53;;;;;;;5.90;5.00;;;;;;;;;;5035110;28;20206;-35
2023/04/30 05:29:29;;;;;;;8.00;5.80;;;;;;;;;;5033938;28;20297;-36
2023/04/30 05:32:03;;;;;;;6.00;5.23;;;;;;;;;;5033333;28;20210;-39
2023/04/30 05:34:38;;;;;;;6.80;5.80;;;;;;;;;;5028456;28;20235;-37
2023/04/30 05:37:16;;;;;;;7.93;6.13;;;;;;;;;;5034944;28;20290;-37
2023/04/30 05:39:47;;;;;;;10.80;5.13;;;;;;;;;;5014876;28;20215;-37
2023/04/30 05:45:01;;;;;;;9.30;5.97;;;;;;;;;;5017057;28;20214;-37
2023/04/30 05:47:42;;;;;;;5.50;4.90;;;;;;;;;;5030096;28;20199;-38
2023/04/30 05:50:16;;;;;;;6.40;5.50;;;;;;;;;;5035156;28;20209;-32
2023/04/30 05:52:56;;;;;;;7.57;5.97;;;;;;;;;;5034129;28;20222;-31
2023/04/30 05:55:25;;;;;;;6.60;5.90;;;;;;;;;;5034492;28;20242;-34
2023/04/30 05:57:54;;;;;;;7.97;5.83;;;;;;;;;;5032087;28;20233;-35
2023/04/30 06:00:36;;;;;;;7.50;5.00;;;;;;;;;;5034380;28;20200;-39
2023/04/30 06:03:09;;;;;;;7.53;5.77;;;;;;;;;;5023417;28;20212;-33
2023/04/30 06:05:40;;;;;;;7.27;5.87;;;;;;;;;;5034210;28;20201;-37
2023/04/30 06:11:02;;;;;;;7.53;5.40;;;;;;;;;;5030653;28;20211;-38
2023/04/30 06:13:38;;;;;;;7.10;6.07;;;;;;;;;;5024608;28;20233;-36
2023/04/30 06:16:08;;;;;;;7.80;5.90;;;;;;;;;;5027564;28;20318;-32
2023/04/30 06:18:36;;;;;;;6.03;5.40;;;;;;;;;;5025620;28;20213;-38
2023/04/30 06:21:07;;;;;;;6.70;5.60;;;;;;;;;;5031237;28;20209;-37
2023/04/30 06:23:37;;;;;;;9.60;5.97;;;;;;;;;;5033690;28;20640;-38
2023/04/30 06:26:14;;;;;;;6.30;5.70;;;;;;;;;;5030368;28;20211;-36
2023/04/30 06:28:41;;;;;;;6.03;5.43;;;;;;;;;;5025997;28;20209;-38
2023/04/30 06:31:09;;;;;;;6.77;5.53;;;;;;;;;;5032293;28;20210;-38
2023/04/30 06:33:36;;;;;;;6.50;4.97;;;;;;;;;;5027423;28;20241;-34
2023/04/30 06:36:04;;;;;;;6.13;5.53;;;;;;;;;;5031934;28;20319;-34
2023/04/30 06:38:35;;;;;;;6.50;5.40;;;;;;;;;;5032319;28;20212;-36
2023/04/30 06:41:04;;;;;;;7.10;5.50;;;;;;;;;;5029735;28;20249;-35
2023/04/30 06:43:31;;;;;;;5.70;5.00;;;;;;;;;;5013289;28;20317;-37
2023/04/30 06:45:59;;;;;;;6.17;5.57;;;;;;;;;;5032970;28;20194;-37
2023/04/30 06:48:28;;;;;;;6.13;5.53;;;;;;;;;;5022516;28;20234;-33
2023/04/30 06:50:58;;;;;;;5.60;5.03;;;;;;;;;;5030025;28;20274;-39
2023/04/30 06:53:26;;;;;;;6.63;5.03;;;;;;;;;;5032761;28;20218;-38
2023/04/30 06:56:01;;;;;;;6.17;5.27;;;;;;;;;;5029867;28;20269;-36
2023/04/30 06:58:37;;;;;;;5.87;5.17;;;;;;;;;;5029575;28;20311;-37
2023/04/30 07:01:13;;;;;;;5.43;4.93;;;;;;;;;;5024155;28;20233;-40
2023/04/30 07:03:40;;;;;;;6.10;5.30;;;;;;;;;;5029873;28;20366;-36
2023/04/30 07:06:08;;;;;;;4.83;4.30;;;;;;;;;;5032515;28;20233;-37
2023/04/30 07:08:36;;;;;;;5.40;4.90;;;;;;;;;;5032302;28;20237;-32
2023/04/30 07:11:04;;;;;;;5.67;4.97;;;;;;;;;;5032687;28;20206;-34
2023/04/30 07:13:32;;;;;;;5.40;4.90;;;;;;;;;;5021064;28;20680;-35
2023/04/30 07:16:01;;;;;;;5.63;5.00;;;;;;;;;;5032071;28;20229;-35
2023/04/30 07:18:32;;;;;;;7.20;5.47;;;;;;;;;;5027092;28;20294;-43
2023/04/30 07:21:00;;;;;;;4.87;4.37;;;;;;;;;;5032446;28;20199;-36
2023/04/30 07:23:30;;;;;;;5.27;4.67;;;;;;;;;;5032064;28;20280;-36
2023/04/30 07:25:57;;;;;;;5.17;4.67;;;;;;;;;;5031077;28;20217;-36
2023/04/30 07:28:26;;;;;;;6.43;4.77;;;;;;;;;;5027066;28;20207;-35
2023/04/30 07:30:58;;;;;;;6.10;4.37;;;;;;;;;;5032513;28;20262;-41
2023/04/30 07:33:30;;;;;;;6.97;5.20;;;;;;;;;;5026996;28;20223;-38
2023/04/30 07:36:02;;;;;;;7.27;4.83;;;;;;;;;;5028802;28;20246;-34
2023/04/30 07:38:37;;;;;;;6.87;5.03;;;;;;;;;;5032474;28;20192;-37
2023/04/30 07:41:10;;;;;;;5.67;4.60;;;;;;;;;;5022913;28;20311;-35
2023/04/30 07:43:42;;;;;;;5.30;4.57;;;;;;;;;;5030089;28;20219;-35
2023/04/30 07:46:13;;;;;;;6.60;5.00;;;;;;;;;;5033120;28;20207;-36
2023/04/30 07:48:45;;;;;;;6.17;5.20;;;;;;;;;;5026165;28;20299;-38
2023/04/30 07:51:14;;;;;;;4.23;3.63;;;;;;;;;;5032583;28;20199;-34
2023/04/30 07:53:44;;;;;;;5.03;4.13;;;;;;;;;;5032935;28;20219;-39
2023/04/30 07:56:17;;;;;;;4.73;4.30;;;;;;;;;;5030166;28;20310;-41
2023/04/30 07:58:45;;;;;;;4.80;4.30;;;;;;;;;;5032764;28;20234;-37
2023/04/30 08:01:20;;;;;;;5.93;4.90;;;;;;;;;;5033334;28;20212;-35
2023/04/30 08:03:50;;;;;;;4.83;4.40;;;;;;;;;;5035321;28;20229;-40
2023/04/30 08:06:17;;;;;;;4.23;3.90;;;;;;;;;;5032077;28;20204;-39
2023/04/30 08:08:46;;;;;;;4.90;4.43;;;;;;;;;;5036532;28;20209;-37
2023/04/30 08:11:15;;;;;;;5.43;4.87;;;;;;;;;;5031876;28;20203;-35
2023/04/30 08:13:43;;;;;;;4.17;3.77;;;;;;;;;;5035614;28;20269;-41
2023/04/30 08:16:14;;;;;;;5.07;4.20;;;;;;;;;;5036102;28;20227;-38
2023/04/30 08:18:48;;;;;;;6.00;4.13;;;;;;;;;;5028691;28;20307;-40
2023/04/30 08:21:21;;;;;;;4.67;4.03;;;;;;;;;;5030556;28;20218;-34
2023/04/30 08:23:56;;;;;;;4.03;3.70;;;;;;;;;;5036750;28;20309;-36
2023/04/30 08:26:25;;;;;;;4.47;3.27;;;;;;;;;;5035035;28;20252;-37
2023/04/30 08:28:53;;;;;;;3.57;3.10;;;;;;;;;;5023394;28;20202;-39
2023/04/30 08:31:21;;;;;;;4.10;3.80;;;;;;;;;;5034538;28;20199;-37
2023/04/30 08:33:49;;;;;;;4.80;4.27;;;;;;;;;;5033330;28;20223;-37
2023/04/30 08:36:18;;;;;;;4.73;3.53;;;;;;;;;;5035065;28;20246;-33
2023/04/30 08:38:45;;;;;;;4.60;3.43;;;;;;;;;;5035187;28;20206;-41
2023/04/30 08:41:14;;;;;;;3.83;3.23;;;;;;;;;;5034383;28;20313;-41
2023/04/30 08:43:47;;;;;;;3.93;3.60;;;;;;;;;;5027832;28;20222;-38
2023/04/30 08:46:23;;;;;;;3.97;3.47;;;;;;;;;;5035748;28;20199;-36
2023/04/30 08:48:53;;;;;;;4.60;3.90;;;;;;;;;;5027050;28;20210;-41
2023/04/30 08:51:22;;;;;;;3.77;3.30;;;;;;;;;;5022717;28;20293;-42
2023/04/30 08:53:50;;;;;;;3.50;3.20;;;;;;;;;;5035229;28;20305;-41
2023/04/30 08:56:18;;;;;;;2.70;2.50;;;;;;;;;;5031034;28;20238;-40
2023/04/30 08:58:46;;;;;;;3.70;3.40;;;;;;;;;;5029883;28;20218;-39
2023/04/30 09:01:14;;;;;;;3.50;3.17;;;;;;;;;;5035352;28;20229;-34
2023/04/30 09:03:42;;;;;;;3.53;3.23;;;;;;;;;;5029145;28;20226;-30
2023/04/30 09:06:09;;;;;;;4.07;3.67;;;;;;;;;;5031256;28;20207;-36
2023/04/30 09:08:49;;;;;;;4.87;2.90;;;;;;;;;;5031152;28;20218;-34
2023/04/30 09:11:24;;;;;;;4.03;3.00;;;;;;;;;;5024414;28;20202;-43
2023/04/30 09:13:52;;;;;;;3.70;3.23;;;;;;;;;;5031446;28;20269;-35
2023/04/30 09:16:26;;;;;;;3.20;2.90;;;;;;;;;;5035172;28;20233;-31
2023/04/30 09:18:55;;;;;;;3.60;3.30;;;;;;;;;;5024616;28;20214;-37
2023/04/30 09:21:32;;;;;;;3.13;2.90;;;;;;;;;;5030848;28;20225;-35
2023/04/30 09:24:02;;;;;;;4.60;3.17;;;;;;;;;;5015312;28;20246;-35
2023/04/30 09:26:35;;;;;;;4.17;3.20;;;;;;;;;;5023510;28;20295;-40
2023/04/30 09:29:08;;;;;;;3.30;2.93;;;;;;;;;;5032431;28;20202;-36
2023/04/30 09:31:46;;;;;;;3.07;2.80;;;;;;;;;;5035187;28;20217;-36
2023/04/30 09:34:20;;;;;;;3.17;2.67;;;;;;;;;;5028812;28;20313;-39
2023/04/30 09:37:03;;;;;;;3.07;2.73;;;;;;;;;;5033933;28;20302;-38
2023/04/30 09:39:37;;;;;;;2.80;2.60;;;;;;;;;;5033195;28;20289;-37
2023/04/30 09:42:11;;;;;;;3.03;2.73;;;;;;;;;;5030538;28;20203;-39
2023/04/30 09:44:40;;;;;;;6.63;2.57;;;;;;;;;;5030582;28;20223;-32
2023/04/30 09:47:16;;;;;;;2.47;2.13;;;;;;;;;;5023870;28;20240;-35
2023/04/30 09:49:45;;;;;;;3.07;2.73;;;;;;;;;;5029614;28;20262;-40
2023/04/30 09:52:14;;;;;;;2.90;2.40;;;;;;;;;;5034484;28;20218;-36
2023/04/30 09:54:45;;;;;;;3.30;2.50;;;;;;;;;;5034233;28;20241;-36
2023/04/30 09:57:26;;;;;;;2.40;2.20;;;;;;;;;;5033331;28;20231;-41
2023/04/30 09:59:57;;;;;;;2.77;2.57;;;;;;;;;;5029612;28;20301;-40
2023/04/30 10:02:25;;;;;;;2.57;2.30;;;;;;;;;;5030006;28;20200;-29
2023/04/30 10:04:56;;;;;;;2.10;2.00;;;;;;;;;;5029711;28;20272;-40
2023/04/30 10:07:25;;;;;;;2.70;2.50;;;;;;;;;;5033558;28;20213;-37
2023/04/30 10:10:01;;;;;;;2.37;2.17;;;;;;;;;;5029775;28;20263;-36
2023/04/30 10:12:33;;;;;;;2.30;2.10;;;;;;;;;;5029648;28;20210;-34
2023/04/30 10:15:12;;;;;;;2.43;2.20;;;;;;;;;;5034097;28;20222;-33
2023/04/30 10:17:41;;;;;;;2.40;2.30;;;;;;;;;;5029415;28;20231;-33
2023/04/30 10:20:10;;;;;;;2.33;2.13;;;;;;;;;;5024637;28;20203;-39
2023/04/30 10:22:40;;;;;;;2.37;2.17;;;;;;;;;;5033838;28;20356;-41
2023/04/30 10:25:15;;;;;;;2.53;2.17;;;;;;;;;;5033759;28;20226;-39
2023/04/30 10:27:45;;;;;;;2.57;1.93;;;;;;;;;;5030163;28;20304;-32
2023/04/30 10:30:17;;;;;;;1.60;1.50;;;;;;;;;;5033974;28;20266;-37
2023/04/30 10:32:57;;;;;;;1.73;1.63;;;;;;;;;;5031188;28;20215;-36
2023/04/30 10:35:37;;;;;;;2.10;2.00;;;;;;;;;;5022000;28;20206;-34
2023/04/30 10:38:11;;;;;;;2.00;1.90;;;;;;;;;;5033889;28;20215;-35
2023/04/30 10:40:42;;;;;;;1.90;1.80;;;;;;;;;;5031940;28;20202;-38
2023/04/30 10:43:13;;;;;;;2.13;1.93;;;;;;;;;;5030201;28;20226;-37
2023/04/30 10:45:42;;;;;;;2.37;2.13;;;;;;;;;;5032437;28;20199;-42
2023/04/30 10:48:10;;;;;;;2.47;2.27;;;;;;;;;;5021990;28;20226;-34
2023/04/30 10:50:41;;;;;;;2.20;2.00;;;;;;;;;;5025180;28;20210;-38
2023/04/30 10:53:12;;;;;;;2.37;1.90;;;;;;;;;;5032566;28;20223;-33
2023/04/30 10:55:48;;;;;;;2.40;2.20;;;;;;;;;;5032350;28;20199;-35
2023/04/30 10:58:28;;;;;;;2.70;2.50;;;;;;;;;;5023925;28;20214;-39
2023/04/30 11:01:03;;;;;;;2.07;1.97;;;;;;;;;;5032672;28;20229;-33
2023/04/30 11:03:31;;;;;;;2.50;2.30;;;;;;;;;;5025432;28;20226;-39
2023/04/30 11:06:02;;;;;;;2.70;2.27;;;;;;;;;;5031697;28;20217;-37
2023/04/30 11:08:33;;;;;;;3.63;2.00;;;;;;;;;;5031684;28;20195;-38
2023/04/30 11:11:03;;;;;;;2.77;2.50;;;;;;;;;;5027095;28;20203;-34
2023/04/30 11:13:40;;;;;;;2.03;1.90;;;;;;;;;;5032804;28;20232;-35
2023/04/30 11:16:08;;;;;;;2.13;2.03;;;;;;;;;;5025934;28;20239;-43
2023/04/30 11:18:35;;;;;;;2.50;2.03;;;;;;;;;;5025669;28;20254;-40
2023/04/30 11:21:03;;;;;;;2.45;2.25;;;;;;;;;;5280835;22;20970;-30
2023/04/30 11:23:34;;;;;;;2.00;1.90;;;;;;;;;;5088903;28;20235;-30
2023/04/30 11:26:03;;;;;;;2.30;2.10;;;;;;;;;;5096493;28;20227;-31
2023/04/30 11:28:34;;;;;;;2.17;1.80;;;;;;;;;;5097540;28;20197;-32
2023/04/30 11:31:02;;;;;;;1.80;1.70;;;;;;;;;;5096762;28;20196;-34
2023/04/30 11:33:30;;;;;;;2.80;2.03;;;;;;;;;;5092569;28;20244;-31
2023/04/30 11:35:58;;;;;;;2.17;2.07;;;;;;;;;;5088707;28;20204;-31
2023/04/30 11:38:27;;;;;;;3.53;3.23;;;;;;;;;;5102840;28;20245;-31
2023/04/30 11:40:54;;;;;;;2.20;2.10;;;;;;;;;;5107453;28;20682;-30
2023/04/30 11:43:23;;;;;;;2.77;2.27;;;;;;;;;;5094948;28;20221;-31
2023/04/30 11:46:01;;;;;;;2.87;2.20;;;;;;;;;;5099439;28;20205;-31
2023/04/30 11:48:31;;;;;;;2.23;2.13;;;;;;;;;;5089645;28;20193;-31
2023/04/30 11:50:58;;;;;;;2.03;1.90;;;;;;;;;;5098516;28;20199;-30
2023/04/30 11:53:28;;;;;;;2.63;2.17;;;;;;;;;;5096755;28;20228;-32
2023/04/30 11:55:55;;;;;;;2.47;2.27;;;;;;;;;;5097926;28;20201;-30
2023/04/30 11:58:23;;;;;;;3.00;2.33;;;;;;;;;;5084685;28;20303;-32
2023/04/30 12:00:52;;;;;;;3.37;1.80;;;;;;;;;;5099086;28;20201;-31
2023/04/30 12:03:19;;;;;;;2.97;2.50;;;;;;;;;;5094498;28;20219;-30
2023/04/30 12:05:47;;;;;;;2.70;2.40;;;;;;;;;;5093118;28;20948;-29
2023/04/30 12:08:14;;;;;;;3.00;2.70;;;;;;;;;;5096657;28;20201;-32
2023/04/30 12:10:41;;;;;;;2.90;2.70;;;;;;;;;;5097002;28;20213;-33
2023/04/30 12:13:08;;;;;;;2.27;2.07;;;;;;;;;;5091356;28;20221;-33
2023/04/30 12:15:38;;;;;;;2.63;2.43;;;;;;;;;;5103219;28;20681;-32
2023/04/30 12:18:14;;;;;;;3.07;2.63;;;;;;;;;;5092774;28;20219;-32
2023/04/30 12:20:44;;;;;;;3.83;2.07;;;;;;;;;;5102469;28;20211;-31
2023/04/30 12:23:11;;;;;;;3.23;2.67;;;;;;;;;;5096146;28;20277;-31
2023/04/30 12:25:41;;;;;;;2.30;2.10;;;;;;;;;;5095674;28;20193;-31
2023/04/30 12:28:08;;;;;;;2.90;2.60;;;;;;;;;;5085723;28;20205;-34
2023/04/30 12:30:37;;;;;;;3.07;2.70;;;;;;;;;;5097263;28;20273;-34
2023/04/30 12:33:04;;;;;;;2.97;2.77;;;;;;;;;;5080873;28;20197;-29
2023/04/30 12:35:32;;;;;;;2.67;2.30;;;;;;;;;;5088320;28;20212;-33
2023/04/30 12:38:04;;;;;;;4.77;2.80;;;;;;;;;;5107437;28;20284;-31
2023/04/30 12:40:31;;;;;;;3.07;2.77;;;;;;;;;;5090847;28;20205;-32
2023/04/30 12:43:02;;;;;;;2.53;2.27;;;;;;;;;;5088051;28;20212;-31
2023/04/30 12:45:46;;;;;;;2.97;2.20;;;;;;;;;;5097445;28;20237;-32
2023/04/30 12:48:15;;;;;;;2.17;2.07;;;;;;;;;;5087786;28;20286;-30
2023/04/30 12:50:42;;;;;;;3.47;2.10;;;;;;;;;;5098592;28;20201;-32
2023/04/30 12:53:09;;;;;;;3.57;2.37;;;;;;;;;;5099734;28;20920;-32
2023/04/30 12:55:38;;;;;;;2.10;2.00;;;;;;;;;;5092780;28;20205;-31
2023/04/30 12:58:08;;;;;;;2.40;2.03;;;;;;;;;;5098154;28;20217;-29
2023/04/30 13:00:50;;;;;;;2.40;2.00;;;;;;;;;;5102937;28;20201;-30
2023/04/30 13:03:18;;;;;;;2.43;1.97;;;;;;;;;;5090576;28;20310;-30
2023/04/30 13:05:49;;;;;;;1.90;1.80;;;;;;;;;;5101015;28;20697;-31
2023/04/30 13:08:16;;;;;;;2.13;1.93;;;;;;;;;;5106175;28;20188;-34
2023/04/30 13:10:44;;;;;;;2.43;2.10;;;;;;;;;;5099301;28;20216;-32
2023/04/30 13:13:11;;;;;;;2.50;2.30;;;;;;;;;;5089592;28;20233;-31
2023/04/30 13:15:39;;;;;;;2.53;2.20;;;;;;;;;;5095222;28;20394;-33
2023/04/30 13:18:08;;;;;;;2.30;2.20;;;;;;;;;;5085277;28;20223;-30
2023/04/30 13:20:35;;;;;;;2.47;1.73;;;;;;;;;;5096389;28;20193;-31
2023/04/30 13:23:02;;;;;;;2.20;1.93;;;;;;;;;;5091149;28;20214;-29
2023/04/30 13:25:30;;;;;;;3.23;2.03;;;;;;;;;;5111165;28;20564;-30
2023/04/30 13:27:57;;;;;;;2.47;2.27;;;;;;;;;;5093501;28;20196;-33
2023/04/30 13:30:24;;;;;;;2.17;2.00;;;;;;;;;;5095604;28;20625;-33
2023/04/30 13:32:52;;;;;;;1.43;1.33;;;;;;;;;;5091890;28;20208;-32
2023/04/30 13:35:21;;;;;;;2.40;2.20;;;;;;;;;;5091323;28;20201;-34
2023/04/30 13:37:51;;;;;;;3.53;2.20;;;;;;;;;;5088496;28;20213;-33
2023/04/30 13:40:18;;;;;;;2.00;1.90;;;;;;;;;;5095962;28;20200;-33
2023/04/30 13:42:46;;;;;;;2.07;1.87;;;;;;;;;;5089235;28;20210;-33
2023/04/30 13:45:13;;;;;;;3.57;2.13;;;;;;;;;;5095879;28;20215;-29
2023/04/30 13:47:40;;;;;;;1.77;1.67;;;;;;;;;;5091882;28;20202;-30
2023/04/30 13:50:08;;;;;;;1.60;1.50;;;;;;;;;;5092979;28;20200;-32
2023/04/30 13:52:37;;;;;;;2.87;1.87;;;;;;;;;;5093938;28;20197;-28
2023/04/30 13:55:04;;;;;;;2.50;1.90;;;;;;;;;;5090996;28;20326;-33
2023/04/30 13:57:32;;;;;;;3.20;1.83;;;;;;;;;;5081908;28;20251;-31
2023/04/30 13:59:59;;;;;;;3.17;2.10;;;;;;;;;;5103276;28;20201;-32
2023/04/30 14:02:27;;;;;;;1.70;1.60;;;;;;;;;;5089125;28;20204;-32
2023/04/30 14:04:54;;;;;;;3.00;2.00;;;;;;;;;;5097571;28;20213;-31
2023/04/30 14:07:21;;;;;;;1.73;1.50;;;;;;;;;;5101514;28;20219;-30
2023/04/30 14:09:50;;;;;;;2.50;2.20;;;;;;;;;;5114246;28;20200;-36
2023/04/30 14:12:17;;;;;;;3.13;1.93;;;;;;;;;;5089900;28;20211;-33
2023/04/30 14:14:44;;;;;;;3.83;2.33;;;;;;;;;;5093581;28;20220;-35
2023/04/30 14:17:11;;;;;;;2.10;1.90;;;;;;;;;;5087825;28;20200;-34
2023/04/30 14:19:38;;;;;;;2.13;1.90;;;;;;;;;;5090834;28;20220;-30
2023/04/30 14:22:06;;;;;;;2.00;1.90;;;;;;;;;;5097259;28;20684;-33
2023/04/30 14:24:34;;;;;;;2.27;1.90;;;;;;;;;;5103302;28;20306;-36
2023/04/30 14:27:02;;;;;;;2.40;2.20;;;;;;;;;;5091483;28;20201;-32
2023/04/30 14:29:30;;;;;;;2.60;2.37;;;;;;;;;;5092882;28;20276;-33
2023/04/30 14:31:57;;;;;;;2.17;2.07;;;;;;;;;;5096434;28;20196;-30
2023/04/30 14:34:24;;;;;;;4.37;1.87;;;;;;;;;;5087028;28;20247;-34
2023/04/30 14:36:51;;;;;;;2.27;2.07;;;;;;;;;;5086847;28;20243;-33
2023/04/30 14:39:18;;;;;;;2.07;1.80;;;;;;;;;;5095906;28;20216;-33
2023/04/30 14:41:45;;;;;;;2.50;1.83;;;;;;;;;;5101774;28;20215;-34
2023/04/30 14:44:14;;;;;;;2.33;2.10;;;;;;;;;;5080647;28;20259;-35
2023/04/30 14:46:41;;;;;;;2.60;2.00;;;;;;;;;;5087943;28;20197;-35
2023/04/30 14:49:10;;;;;;;2.03;1.93;;;;;;;;;;5085042;28;20232;-34
2023/04/30 14:51:37;;;;;;;3.30;2.30;;;;;;;;;;5093955;28;20752;-33
2023/04/30 14:54:04;;;;;;;2.83;2.03;;;;;;;;;;5094804;28;20228;-35
2023/04/30 14:56:31;;;;;;;2.10;2.00;;;;;;;;;;5092513;28;20206;-37
2023/04/30 14:58:58;;;;;;;2.27;2.07;;;;;;;;;;5093774;28;20566;-33
2023/04/30 15:01:29;;;;;;;2.03;1.93;;;;;;;;;;5101918;28;20283;-31
2023/04/30 15:03:56;;;;;;;2.43;1.83;;;;;;;;;;5098179;28;20224;-35
2023/04/30 15:06:23;;;;;;;2.10;2.00;;;;;;;;;;5095032;28;20204;-32
2023/04/30 15:08:50;;;;;;;2.50;2.10;;;;;;;;;;5098605;28;20205;-35
2023/04/30 15:11:17;;;;;;;2.67;2.00;;;;;;;;;;5105291;28;20236;-33
2023/04/30 15:13:44;;;;;;;2.63;2.10;;;;;;;;;;5084758;28;20285;-35
2023/04/30 15:16:12;;;;;;;2.37;1.80;;;;;;;;;;5093083;28;20205;-33
2023/04/30 15:18:40;;;;;;;2.07;1.97;;;;;;;;;;5088331;28;20235;-31